createdAt,value
2023-02-23T00:02:19.165Z,16.13
2023-02-23T00:04:46.147Z,15.20
2023-02-23T00:07:12.824Z,14.95
2023-02-23T00:09:40.432Z,15.75
2023-02-23T00:12:10.346Z,15.77
2023-02-23T00:14:38.441Z,16.13
2023-02-23T00:17:05.846Z,15.73
2023-02-23T00:19:33.643Z,14.65
2023-02-23T00:22:01.162Z,15.90
2023-02-23T00:24:28.178Z,15.85
2023-02-23T00:26:55.445Z,15.40
2023-02-23T00:29:24.812Z,15.15
2023-02-23T00:31:53.071Z,14.82
2023-02-23T00:34:21.532Z,21.35
2023-02-23T00:36:56.711Z,19.65
2023-02-23T00:39:29.321Z,20.38
2023-02-23T00:41:57.082Z,20.98
2023-02-23T00:44:24.872Z,22.45
2023-02-23T00:46:52.353Z,25.30
2023-02-23T00:49:20.925Z,22.00
2023-02-23T00:51:48.157Z,22.25
2023-02-23T00:54:16.469Z,20.42
2023-02-23T00:56:43.515Z,20.15
2023-02-23T00:59:11.249Z,17.15
2023-02-23T01:04:15.823Z,19.73
2023-02-23T01:06:44.531Z,18.30
2023-02-23T01:09:16.241Z,15.02
2023-02-23T01:11:46.958Z,17.50
2023-02-23T01:14:14.090Z,18.20
2023-02-23T01:16:40.839Z,19.83
2023-02-23T01:19:07.676Z,19.15
2023-02-23T01:21:38.024Z,18.17
2023-02-23T01:24:05.683Z,18.42
2023-02-23T01:26:36.080Z,19.15
2023-02-23T01:29:26.561Z,16.65
2023-02-23T01:31:53.437Z,18.13
2023-02-23T01:34:21.871Z,17.50
2023-02-23T01:36:55.623Z,17.17
2023-02-23T01:39:22.551Z,17.92
2023-02-23T01:41:51.955Z,18.00
2023-02-23T01:44:22.749Z,17.27
2023-02-23T01:46:53.093Z,16.85
2023-02-23T01:49:37.039Z,16.48
2023-02-23T01:52:31.223Z,15.45
2023-02-23T01:55:01.072Z,15.63
2023-02-23T01:57:28.286Z,15.40
2023-02-23T01:59:56.014Z,15.50
2023-02-23T02:02:33.114Z,15.60
2023-02-23T02:05:00.736Z,14.60
2023-02-23T02:07:30.500Z,15.52
2023-02-23T02:10:22.208Z,15.63
2023-02-23T02:12:57.989Z,14.80
2023-02-23T02:15:30.156Z,14.98
2023-02-23T02:18:18.971Z,16.58
2023-02-23T02:20:52.677Z,15.10
2023-02-23T02:23:44.528Z,15.38
2023-02-23T02:26:33.715Z,15.27
2023-02-23T02:29:26.481Z,14.95
2023-02-23T02:32:15.213Z,15.32
2023-02-23T02:35:07.688Z,14.73
2023-02-23T02:38:05.812Z,17.58
2023-02-23T02:41:24.010Z,16.17
2023-02-23T02:44:15.568Z,14.48
2023-02-23T02:46:49.802Z,15.30
2023-02-23T02:49:24.363Z,14.65
2023-02-23T02:52:01.615Z,15.32
2023-02-23T02:55:06.140Z,15.02
2023-02-23T02:57:33.615Z,14.57
2023-02-23T03:00:18.887Z,16.13
2023-02-23T03:03:04.991Z,15.10
2023-02-23T03:06:07.936Z,13.88
2023-02-23T03:09:02.113Z,14.23
2023-02-23T03:11:58.787Z,14.35
2023-02-23T03:15:12.530Z,14.13
2023-02-23T03:18:06.829Z,14.35
2023-02-23T03:21:04.500Z,14.55
2023-02-23T03:23:52.926Z,13.55
2023-02-23T03:26:41.111Z,18.30
2023-02-23T03:29:33.339Z,17.60
2023-02-23T03:32:47.536Z,16.60
2023-02-23T03:35:56.194Z,17.02
2023-02-23T03:39:02.779Z,16.92
2023-02-23T03:41:51.315Z,18.45
2023-02-23T03:44:44.482Z,20.73
2023-02-23T03:47:41.724Z,18.38
2023-02-23T03:50:37.949Z,18.23
2023-02-23T03:53:25.442Z,19.13
2023-02-23T03:56:15.658Z,18.75
2023-02-23T03:59:12.907Z,17.77
2023-02-23T04:01:58.608Z,16.98
2023-02-23T04:04:46.849Z,18.50
2023-02-23T04:07:35.700Z,16.10
2023-02-23T04:10:22.072Z,18.15
2023-02-23T04:13:17.273Z,16.83
2023-02-23T04:16:01.970Z,16.63
2023-02-23T04:18:38.216Z,17.10
2023-02-23T04:21:06.769Z,17.60
2023-02-23T04:23:35.612Z,18.95
2023-02-23T04:26:02.492Z,19.90
2023-02-23T04:28:29.527Z,19.02
2023-02-23T04:30:56.399Z,20.95
2023-02-23T04:33:25.812Z,20.52
2023-02-23T04:35:54.295Z,18.08
2023-02-23T04:38:22.613Z,19.38
2023-02-23T04:40:49.899Z,18.70
2023-02-23T04:43:16.982Z,19.33
2023-02-23T04:45:45.148Z,18.40
2023-02-23T04:48:25.774Z,20.73
2023-02-23T04:50:57.214Z,18.85
2023-02-23T04:53:24.418Z,18.50
2023-02-23T04:55:52.057Z,17.70
2023-02-23T04:58:18.928Z,18.20
2023-02-23T05:00:45.757Z,17.95
2023-02-23T05:03:13.128Z,17.48
2023-02-23T05:05:40.215Z,16.20
2023-02-23T05:08:07.145Z,17.27
2023-02-23T05:10:38.648Z,15.35
2023-02-23T05:13:06.900Z,15.88
2023-02-23T05:15:38.804Z,15.55
2023-02-23T05:18:08.494Z,15.20
2023-02-23T05:20:45.818Z,15.80
2023-02-23T05:23:19.308Z,15.93
2023-02-23T05:25:46.058Z,16.50
2023-02-23T05:28:12.898Z,15.88
2023-02-23T05:30:39.979Z,15.93
2023-02-23T05:33:06.702Z,18.67
2023-02-23T05:35:33.487Z,21.48
2023-02-23T05:38:00.312Z,18.50
2023-02-23T05:40:27.447Z,17.10
2023-02-23T05:42:59.842Z,17.73
2023-02-23T05:45:27.070Z,19.75
2023-02-23T05:47:53.879Z,18.17
2023-02-23T05:50:20.831Z,17.65
2023-02-23T05:52:47.767Z,22.05
2023-02-23T05:55:15.379Z,30.25
2023-02-23T05:57:43.056Z,25.42
2023-02-23T06:00:11.050Z,23.17
2023-02-23T06:02:38.483Z,23.52
2023-02-23T06:05:06.295Z,23.33
2023-02-23T06:07:33.059Z,19.83
2023-02-23T06:10:00.188Z,20.85
2023-02-23T06:12:27.194Z,22.83
2023-02-23T06:14:53.971Z,22.13
2023-02-23T06:17:20.736Z,21.70
2023-02-23T06:19:47.917Z,21.23
2023-02-23T06:22:15.314Z,19.92
2023-02-23T06:24:42.096Z,22.70
2023-02-23T06:27:09.173Z,21.80
2023-02-23T06:29:37.375Z,21.58
2023-02-23T06:32:04.981Z,22.05
2023-02-23T06:34:32.499Z,19.75
2023-02-23T06:36:59.448Z,20.23
2023-02-23T06:39:26.227Z,19.48
2023-02-23T06:41:53.583Z,19.80
2023-02-23T06:44:20.592Z,19.13
2023-02-23T06:46:47.361Z,18.42
2023-02-23T06:49:16.578Z,18.85
2023-02-23T06:51:43.500Z,18.33
2023-02-23T06:54:10.223Z,19.13
2023-02-23T06:56:37.370Z,17.52
2023-02-23T06:59:04.137Z,17.58
2023-02-23T07:01:31.263Z,19.45
2023-02-23T07:03:59.241Z,17.35
2023-02-23T07:06:26.030Z,17.65
2023-02-23T07:08:52.986Z,17.38
2023-02-23T07:11:20.636Z,17.15
2023-02-23T07:13:47.529Z,17.88
2023-02-23T07:16:16.373Z,19.08
2023-02-23T07:18:43.550Z,19.63
2023-02-23T07:21:10.323Z,19.15
2023-02-23T07:23:37.438Z,20.27
2023-02-23T07:26:04.527Z,20.60
2023-02-23T07:28:31.314Z,19.48
2023-02-23T07:30:59.195Z,19.65
2023-02-23T07:33:26.627Z,18.58
2023-02-23T07:35:53.515Z,17.77
2023-02-23T07:38:20.328Z,18.17
2023-02-23T07:40:47.363Z,17.50
2023-02-23T07:43:14.683Z,19.58
2023-02-23T07:45:42.095Z,18.27
2023-02-23T07:48:09.767Z,17.70
2023-02-23T07:50:36.723Z,20.58
2023-02-23T07:53:03.779Z,19.98
2023-02-23T07:55:30.568Z,19.73
2023-02-23T07:57:57.614Z,20.08
2023-02-23T08:00:25.203Z,19.65
2023-02-23T08:02:53.550Z,19.88
2023-02-23T08:05:20.562Z,20.15
2023-02-23T08:07:47.302Z,19.25
2023-02-23T08:10:14.329Z,15.52
2023-02-23T08:12:41.502Z,13.27
2023-02-23T08:15:08.874Z,14.45
2023-02-23T08:17:37.867Z,18.50
2023-02-23T08:20:05.847Z,18.40
2023-02-23T08:22:47.100Z,17.83
2023-02-23T08:25:23.166Z,14.63
2023-02-23T08:27:54.151Z,13.38
2023-02-23T08:30:23.189Z,12.25
2023-02-23T08:32:51.381Z,10.20
2023-02-23T08:35:20.235Z,9.68
2023-02-23T08:37:47.017Z,8.75
2023-02-23T08:40:18.625Z,9.32
2023-02-23T08:42:45.481Z,8.80
2023-02-23T08:45:12.773Z,9.13
2023-02-23T08:47:39.827Z,9.60
2023-02-23T08:50:07.225Z,16.90
2023-02-23T08:52:34.222Z,10.00
2023-02-23T08:55:01.743Z,8.85
2023-02-23T08:57:28.556Z,8.02
2023-02-23T08:59:55.365Z,7.43
2023-02-23T09:02:24.074Z,7.30
2023-02-23T09:04:54.075Z,7.72
2023-02-23T09:07:23.335Z,8.27
2023-02-23T09:09:58.034Z,8.35
2023-02-23T09:12:25.306Z,7.00
2023-02-23T09:14:53.884Z,6.38
2023-02-23T09:17:23.230Z,5.40
2023-02-23T09:19:51.115Z,6.35
2023-02-23T09:22:18.906Z,6.07
2023-02-23T09:24:46.121Z,6.00
2023-02-23T09:27:13.301Z,6.10
2023-02-23T09:29:44.592Z,6.30
2023-02-23T09:32:12.633Z,5.88
2023-02-23T09:34:39.635Z,6.22
2023-02-23T09:37:06.432Z,5.75
2023-02-23T09:39:38.678Z,6.32
2023-02-23T09:42:26.070Z,5.47
2023-02-23T09:45:24.261Z,6.35
2023-02-23T09:48:16.845Z,6.20
2023-02-23T09:50:53.791Z,6.40
2023-02-23T09:53:38.751Z,5.43
2023-02-23T09:56:14.509Z,5.60
2023-02-23T09:58:41.642Z,5.38
2023-02-23T10:01:33.297Z,5.95
2023-02-23T10:04:11.081Z,5.57
2023-02-23T10:06:40.749Z,5.43
2023-02-23T10:09:26.198Z,5.60
2023-02-23T10:12:01.227Z,5.60
2023-02-23T10:14:56.342Z,5.75
2023-02-23T10:17:49.841Z,5.63
2023-02-23T10:20:19.537Z,5.13
2023-02-23T10:22:50.674Z,5.30
2023-02-23T10:25:26.189Z,5.18
2023-02-23T10:27:56.528Z,5.53
2023-02-23T10:30:27.785Z,5.30
2023-02-23T10:33:05.748Z,5.55
2023-02-23T10:35:33.826Z,4.50
2023-02-23T10:38:02.144Z,5.35
2023-02-23T10:40:33.778Z,5.03
2023-02-23T10:43:02.588Z,4.57
2023-02-23T10:45:34.100Z,4.78
2023-02-23T10:48:05.296Z,4.88
2023-02-23T10:50:33.242Z,4.15
2023-02-23T10:53:11.763Z,5.22
2023-02-23T10:55:39.005Z,4.63
2023-02-23T10:58:17.168Z,4.20
2023-02-23T11:01:03.144Z,4.18
2023-02-23T11:03:33.749Z,4.10
2023-02-23T11:06:00.897Z,4.05
2023-02-23T11:08:34.132Z,3.33
2023-02-23T11:11:09.407Z,3.70
2023-02-23T11:13:39.800Z,3.85
2023-02-23T11:16:15.634Z,3.70
2023-02-23T11:18:51.564Z,3.97
2023-02-23T11:21:25.070Z,3.60
2023-02-23T11:23:55.618Z,4.05
2023-02-23T11:26:33.039Z,3.83
2023-02-23T11:29:05.853Z,3.80
2023-02-23T11:31:35.975Z,3.83
2023-02-23T11:34:05.461Z,3.70
2023-02-23T11:36:37.679Z,3.65
2023-02-23T11:39:17.784Z,3.90
2023-02-23T11:41:45.028Z,3.60
2023-02-23T11:44:27.942Z,3.90
2023-02-23T11:46:55.449Z,3.53
2023-02-23T11:49:30.385Z,3.42
2023-02-23T11:51:59.524Z,4.10
2023-02-23T11:54:30.877Z,3.70
2023-02-23T11:56:58.752Z,3.72
2023-02-23T11:59:41.670Z,3.78
2023-02-23T12:02:23.230Z,3.58
2023-02-23T12:05:14.324Z,3.78
2023-02-23T12:08:10.610Z,3.75
2023-02-23T12:10:43.833Z,3.42
2023-02-23T12:13:42.953Z,3.63
2023-02-23T12:16:37.185Z,3.78
2023-02-23T12:19:18.948Z,3.67
2023-02-23T12:21:52.981Z,3.63
2023-02-23T12:24:48.665Z,3.70
2023-02-23T12:27:27.202Z,3.60
2023-02-23T12:30:13.088Z,3.60
2023-02-23T12:32:49.712Z,3.30
2023-02-23T12:35:31.259Z,3.47
2023-02-23T12:38:12.495Z,3.67
2023-02-23T12:40:42.270Z,3.80
2023-02-23T12:43:20.107Z,3.33
2023-02-23T12:45:55.806Z,3.65
2023-02-23T12:48:28.648Z,3.65
2023-02-23T12:50:58.685Z,3.83
2023-02-23T12:53:28.161Z,3.60
2023-02-23T12:56:12.310Z,3.60
2023-02-23T12:59:14.529Z,3.50
2023-02-23T13:02:01.846Z,3.80
2023-02-23T13:04:47.115Z,3.50
2023-02-23T13:07:38.895Z,3.67
2023-02-23T13:10:30.169Z,3.97
2023-02-23T13:13:16.996Z,3.88
2023-02-23T13:15:53.992Z,4.10
2023-02-23T13:18:33.237Z,3.35
2023-02-23T13:21:14.385Z,3.65
2023-02-23T13:24:02.484Z,3.25
2023-02-23T13:26:37.412Z,4.07
2023-02-23T13:29:24.765Z,3.88
2023-02-23T13:31:53.241Z,4.05
2023-02-23T13:34:33.945Z,3.78
2023-02-23T13:37:06.556Z,3.92
2023-02-23T13:39:41.069Z,3.63
2023-02-23T13:42:32.193Z,4.70
2023-02-23T13:45:36.209Z,4.38
2023-02-23T13:48:18.829Z,13.70
2023-02-23T13:51:15.262Z,13.90
2023-02-23T13:53:47.059Z,10.55
2023-02-23T13:56:20.399Z,9.93
2023-02-23T13:58:52.783Z,7.20
2023-02-23T14:01:31.735Z,13.38
2023-02-23T14:04:05.275Z,11.60
2023-02-23T14:06:34.827Z,9.90
2023-02-23T14:09:11.451Z,4.70
2023-02-23T14:12:19.168Z,4.63
2023-02-23T14:14:47.099Z,4.55
2023-02-23T14:17:19.953Z,4.70
2023-02-23T14:20:17.874Z,4.70
2023-02-23T14:23:22.222Z,4.95
2023-02-23T14:26:16.603Z,4.47
2023-02-23T14:29:08.812Z,4.78
2023-02-23T14:31:37.488Z,5.30
2023-02-23T14:34:13.038Z,6.57
2023-02-23T14:36:44.945Z,6.80
2023-02-23T14:39:27.634Z,4.35
2023-02-23T14:41:58.070Z,4.50
2023-02-23T14:44:35.970Z,7.70
2023-02-23T14:47:07.891Z,6.88
2023-02-23T14:49:40.625Z,6.68
2023-02-23T14:52:07.607Z,6.28
2023-02-23T14:54:40.431Z,5.75
2023-02-23T14:57:19.860Z,5.60
2023-02-23T14:59:53.176Z,6.22
2023-02-23T15:02:24.957Z,5.97
2023-02-23T15:04:53.050Z,6.20
2023-02-23T15:07:28.822Z,8.30
2023-02-23T15:09:58.928Z,6.82
2023-02-23T15:12:29.897Z,8.50
2023-02-23T15:15:00.357Z,8.10
2023-02-23T15:17:32.855Z,8.95
2023-02-23T15:20:15.452Z,9.57
2023-02-23T15:22:47.698Z,8.27
2023-02-23T15:25:22.621Z,9.55
2023-02-23T15:27:58.582Z,8.73
2023-02-23T15:30:33.156Z,8.88
2023-02-23T15:33:12.446Z,6.82
2023-02-23T15:36:10.381Z,7.45
2023-02-23T15:38:47.751Z,7.70
2023-02-23T15:41:29.685Z,6.65
2023-02-23T15:44:07.542Z,7.85
2023-02-23T15:46:34.340Z,7.47
2023-02-23T15:49:03.617Z,6.68
2023-02-23T15:51:36.211Z,6.43
2023-02-23T15:54:14.168Z,6.03
2023-02-23T15:56:41.614Z,6.78
2023-02-23T15:59:16.808Z,6.75
2023-02-23T16:01:46.688Z,7.63
2023-02-23T16:04:13.673Z,7.07
2023-02-23T16:06:54.066Z,7.60
2023-02-23T16:09:21.421Z,7.10
2023-02-23T16:12:31.656Z,7.68
2023-02-23T16:15:02.105Z,8.45
2023-02-23T16:17:54.803Z,8.68
2023-02-23T16:20:29.265Z,8.65
2023-02-23T16:22:58.383Z,8.35
2023-02-23T16:25:27.631Z,9.40
2023-02-23T16:28:03.695Z,9.77
2023-02-23T16:30:40.579Z,8.30
2023-02-23T16:33:12.417Z,7.78
2023-02-23T16:35:45.636Z,8.27
2023-02-23T16:38:15.587Z,7.70
2023-02-23T16:40:43.012Z,8.07
2023-02-23T16:43:10.137Z,7.57
2023-02-23T16:45:40.687Z,7.28
2023-02-23T16:48:14.724Z,7.32
2023-02-23T16:50:42.086Z,7.57
2023-02-23T16:53:10.925Z,8.35
2023-02-23T16:55:46.027Z,7.65
2023-02-23T16:59:24.459Z,7.75
2023-02-23T17:01:25.430Z,6.85
2023-02-23T17:03:57.759Z,7.65
2023-02-23T17:06:27.165Z,7.70
2023-02-23T17:11:43.871Z,6.63
2023-02-23T17:15:21.820Z,6.97
2023-02-23T17:22:12.613Z,5.95
2023-02-23T17:24:41.079Z,5.82
2023-02-23T17:27:13.753Z,6.38
2023-02-23T17:30:51.844Z,6.28
2023-02-23T17:33:20.057Z,6.68
2023-02-23T17:35:49.062Z,8.10
2023-02-23T17:38:15.974Z,7.97
2023-02-23T17:43:53.770Z,7.80
2023-02-23T17:46:21.127Z,7.72
2023-02-23T17:48:55.123Z,7.38
2023-02-23T17:51:25.762Z,7.93
2023-02-23T17:54:46.412Z,7.50
2023-02-23T17:57:14.404Z,6.50
2023-02-23T17:59:41.243Z,8.18
2023-02-23T18:02:13.838Z,7.78
2023-02-23T18:04:41.894Z,6.80
2023-02-23T18:07:08.680Z,7.82
2023-02-23T18:09:35.459Z,8.30
2023-02-23T18:12:02.244Z,7.03
2023-02-23T18:14:30.460Z,7.18
2023-02-23T18:16:57.624Z,7.70
2023-02-23T18:19:25.397Z,7.03
2023-02-23T18:21:56.116Z,6.00
2023-02-23T18:24:24.045Z,6.15
2023-02-23T18:26:53.705Z,5.85
2023-02-23T18:29:23.365Z,8.07
2023-02-23T18:31:50.574Z,8.25
2023-02-23T18:34:17.384Z,7.50
2023-02-23T18:36:44.820Z,7.90
2023-02-23T18:39:12.042Z,8.18
2023-02-23T18:41:39.928Z,10.20
2023-02-23T18:44:08.986Z,7.85
2023-02-23T18:46:36.265Z,10.68
2023-02-23T18:49:04.217Z,10.27
2023-02-23T18:51:30.883Z,8.60
2023-02-23T18:53:57.557Z,10.05
2023-02-23T18:56:27.389Z,10.02
2023-02-23T18:58:57.886Z,7.50
2023-02-23T19:01:31.710Z,9.23
2023-02-23T19:04:00.306Z,7.90
2023-02-23T19:06:28.266Z,6.93
2023-02-23T19:08:57.570Z,7.80
2023-02-23T19:11:29.710Z,7.13
2023-02-23T19:13:59.658Z,6.70
2023-02-23T19:16:28.136Z,6.88
2023-02-23T19:18:54.782Z,6.32
2023-02-23T19:21:22.802Z,6.70
2023-02-23T19:23:51.323Z,6.38
2023-02-23T19:26:18.673Z,6.55
2023-02-23T19:28:49.666Z,6.85
2023-02-23T19:31:23.934Z,8.18
2023-02-23T19:33:51.022Z,8.70
2023-02-23T19:36:21.728Z,7.88
2023-02-23T19:38:48.996Z,6.90
2023-02-23T19:41:20.296Z,6.00
2023-02-23T19:43:48.131Z,11.93
2023-02-23T19:46:17.299Z,6.40
2023-02-23T19:48:48.722Z,5.90
2023-02-23T19:51:15.395Z,6.97
2023-02-23T19:53:42.025Z,6.15
2023-02-23T19:56:12.267Z,6.57
2023-02-23T19:58:43.017Z,6.75
2023-02-23T20:01:11.955Z,7.00
2023-02-23T20:03:43.618Z,6.78
2023-02-23T20:06:15.048Z,6.43
2023-02-23T20:08:44.513Z,6.50
2023-02-23T20:11:11.765Z,6.55
2023-02-23T20:13:39.176Z,6.47
2023-02-23T20:16:12.728Z,6.85
2023-02-23T20:18:40.701Z,7.53
2023-02-23T20:21:16.802Z,7.97
2023-02-23T20:23:45.459Z,7.15
2023-02-23T20:26:23.311Z,6.30
2023-02-23T20:28:51.265Z,7.20
2023-02-23T20:31:22.637Z,6.93
2023-02-23T20:33:52.623Z,6.28
2023-02-23T20:36:21.788Z,6.25
2023-02-23T20:38:49.097Z,5.65
2023-02-23T20:41:17.919Z,6.20
2023-02-23T20:43:45.729Z,5.78
2023-02-23T20:46:14.011Z,5.78
2023-02-23T20:48:40.968Z,5.35
2023-02-23T20:51:12.915Z,5.82
2023-02-23T20:53:41.233Z,5.55
2023-02-23T20:56:10.186Z,5.22
2023-02-23T20:58:36.994Z,5.55
2023-02-23T21:01:07.027Z,5.53
2023-02-23T21:03:35.572Z,5.18
2023-02-23T21:06:02.320Z,5.20
2023-02-23T21:08:30.745Z,5.70
2023-02-23T21:10:57.586Z,5.78
2023-02-23T21:13:26.613Z,5.57
2023-02-23T21:16:01.534Z,5.03
2023-02-23T21:18:29.341Z,5.47
2023-02-23T21:20:57.026Z,6.22
2023-02-23T21:23:25.604Z,5.70
2023-02-23T21:25:54.141Z,5.40
2023-02-23T21:28:20.948Z,5.63
2023-02-23T21:30:47.905Z,5.53
2023-02-23T21:33:15.270Z,5.88
2023-02-23T21:35:41.927Z,5.85
2023-02-23T21:38:10.726Z,5.72
2023-02-23T21:40:42.335Z,5.10
2023-02-23T21:43:09.360Z,5.43
2023-02-23T21:45:39.086Z,5.72
2023-02-23T21:48:05.848Z,5.45
2023-02-23T21:50:32.965Z,5.55
2023-02-23T21:52:59.837Z,5.57
2023-02-23T21:55:26.679Z,5.47
2023-02-23T21:57:53.340Z,5.85
2023-02-23T22:00:21.851Z,5.15
2023-02-23T22:02:49.839Z,5.80
2023-02-23T22:05:17.826Z,5.75
2023-02-23T22:07:53.700Z,5.60
2023-02-23T22:10:22.663Z,5.45
2023-02-23T22:12:50.701Z,5.65
2023-02-23T22:15:17.427Z,6.07
2023-02-23T22:17:44.263Z,6.68
2023-02-23T22:20:12.077Z,6.50
2023-02-23T22:22:38.831Z,5.95
2023-02-23T22:25:07.333Z,6.40
2023-02-23T22:27:34.120Z,6.38
2023-02-23T22:30:02.294Z,6.32
2023-02-23T22:32:32.959Z,5.68
2023-02-23T22:35:00.603Z,6.25
2023-02-23T22:37:32.439Z,6.40
2023-02-23T22:40:16.703Z,6.38
2023-02-23T22:42:49.933Z,6.53
2023-02-23T22:45:17.693Z,6.68
2023-02-23T22:47:44.733Z,6.10
2023-02-23T22:50:14.296Z,5.97
2023-02-23T22:52:43.714Z,6.55
2023-02-23T22:55:11.201Z,6.35
2023-02-23T22:57:39.993Z,6.32
2023-02-23T23:00:12.702Z,6.30
2023-02-23T23:02:39.636Z,6.05
2023-02-23T23:05:07.233Z,5.55
2023-02-23T23:07:34.058Z,5.60
2023-02-23T23:10:05.832Z,5.90
2023-02-23T23:12:34.573Z,6.18
2023-02-23T23:15:02.887Z,5.72
2023-02-23T23:17:30.771Z,5.85
2023-02-23T23:20:00.279Z,5.30
2023-02-23T23:22:28.107Z,5.93
2023-02-23T23:24:57.075Z,6.03
2023-02-23T23:27:24.962Z,5.57
2023-02-23T23:29:51.772Z,5.72
2023-02-23T23:32:19.394Z,5.80
2023-02-23T23:34:50.659Z,6.50
2023-02-23T23:37:19.177Z,6.20
2023-02-23T23:39:46.130Z,5.93
2023-02-23T23:42:13.206Z,6.68
2023-02-23T23:44:39.934Z,5.53
2023-02-23T23:47:06.974Z,7.03
2023-02-23T23:49:39.204Z,5.90
2023-02-23T23:52:06.227Z,6.28
2023-02-23T23:54:39.268Z,6.45
2023-02-23T23:57:07.195Z,6.18
2023-02-23T23:59:35.319Z,6.85
